createdAt,value
2018-09-04T00:10:58.261Z,3.8
2018-09-04T00:27:44.707Z,3.7
2018-09-04T00:44:31.003Z,3.7
2018-09-04T01:01:17.350Z,3.7
2018-09-04T01:18:03.340Z,3.7
2018-09-04T01:34:49.062Z,3.7
2018-09-04T01:51:34.865Z,3.7
2018-09-04T02:08:21.178Z,3.7
2018-09-04T02:25:06.311Z,3.7
2018-09-04T02:41:52.036Z,3.7
2018-09-04T02:58:37.484Z,3.7
2018-09-04T03:15:23.151Z,3.7
2018-09-04T03:32:07.885Z,3.7
2018-09-04T03:48:53.299Z,3.7
2018-09-04T04:05:38.456Z,3.7
2018-09-04T04:22:23.718Z,3.7
2018-09-04T04:39:08.914Z,3.7
2018-09-04T04:55:54.082Z,3.7
2018-09-04T05:12:39.152Z,3.7
2018-09-04T05:29:24.378Z,3.7
2018-09-04T05:46:10.251Z,3.7
2018-09-04T06:02:55.803Z,3.7
2018-09-04T06:19:41.873Z,3.7
2018-09-04T06:36:28.623Z,3.8
2018-09-04T06:53:16.411Z,3.8
2018-09-04T07:10:03.062Z,3.8
2018-09-04T07:26:51.422Z,3.9
2018-09-04T07:43:38.312Z,3.9
2018-09-04T08:00:26.365Z,3.9
2018-09-04T08:17:14.908Z,4.0
2018-09-04T08:34:03.478Z,4.0
2018-09-04T08:50:52.431Z,4.0
2018-09-04T09:04:20.412Z,4.1
2018-09-04T09:11:04.213Z,4.1
2018-09-04T09:27:55.056Z,4.1
2018-09-04T09:58:15.816Z,4.1
2018-09-04T10:15:07.059Z,4.1
2018-09-04T10:25:13.779Z,4.1
2018-09-04T10:42:05.729Z,4.1
2018-09-04T10:58:58.022Z,4.1
2018-09-04T11:09:05.510Z,4.1
2018-09-04T11:25:57.945Z,4.1
2018-09-04T11:42:50.926Z,4.1
2018-09-04T12:06:29.521Z,4.3
2018-09-04T12:13:15.181Z,4.2
2018-09-04T12:26:45.853Z,4.2
2018-09-04T12:40:16.814Z,4.2
2018-09-04T12:57:10.455Z,4.2
2018-09-04T13:05:37.688Z,4.3
2018-09-04T13:22:31.853Z,4.2
2018-09-04T13:39:26.399Z,4.3
2018-09-04T13:44:30.988Z,4.3
2018-09-04T14:01:26.022Z,4.3
2018-09-04T14:18:21.359Z,4.4
2018-09-04T14:26:49.187Z,4.5
2018-09-04T14:43:45.601Z,4.6
2018-09-04T14:55:36.944Z,4.5
2018-09-04T14:57:18.533Z,4.4
2018-09-04T14:59:00.050Z,4.3
2018-09-04T15:14:11.917Z,4.1
2018-09-04T15:24:19.130Z,4.1
2018-09-04T15:41:11.116Z,4.1
2018-09-04T15:58:03.237Z,4.1
2018-09-04T16:14:55.799Z,4.1
2018-09-04T16:31:48.387Z,4.1
2018-09-04T17:05:33.508Z,4.0
2018-09-04T17:22:25.213Z,4.0
2018-09-04T17:39:16.608Z,4.0
2018-09-04T17:56:07.533Z,4.0
2018-09-04T18:12:58.036Z,4.0
2018-09-04T18:29:48.255Z,4.0
2018-09-04T18:46:38.162Z,4.0
2018-09-04T19:03:27.765Z,3.9
2018-09-04T19:20:17.182Z,3.9
2018-09-04T19:37:06.308Z,3.9
2018-09-04T19:53:54.961Z,3.9
2018-09-04T20:10:43.320Z,3.9
2018-09-04T20:27:31.794Z,3.9
2018-09-04T20:44:19.414Z,3.9
2018-09-04T21:01:06.871Z,3.9
2018-09-04T21:17:54.121Z,3.9
2018-09-04T21:51:28.364Z,3.8
2018-09-04T22:08:15.093Z,3.8
2018-09-04T22:25:01.800Z,3.8
2018-09-04T22:41:48.237Z,3.8
2018-09-04T22:58:34.537Z,3.8
2018-09-04T23:15:20.797Z,3.8
2018-09-04T23:32:06.728Z,3.8
2018-09-04T23:48:52.577Z,3.8
